Time;durP1;ratioP1;P1;durP2;ratioP2;P2;SDS_P1;SDS_P2;PMS_P1;PMS_P2;Temp;Humidity;BMP_temperature;BMP_pressure;BME280_temperature;BME280_humidity;BME280_pressure;Samples;Min_cycle;Max_cycle;Signal;HPM_P1;HPM_P2
2023/08/27 00:00:50;;;;;;;16.70;5.18;;;;;;;;;;5005270;28;20038;-61
2023/08/27 00:03:44;;;;;;;23.38;5.47;;;;;;;;;;5000954;28;20163;-61
2023/08/27 00:06:31;;;;;;;20.45;5.80;;;;;;;;;;5001376;28;20050;-61
2023/08/27 00:09:24;;;;;;;14.65;4.80;;;;;;;;;;5003348;28;20050;-61
2023/08/27 00:12:18;;;;;;;23.17;4.72;;;;;;;;;;5002835;28;20104;-62
2023/08/27 00:15:06;;;;;;;23.05;5.35;;;;;;;;;;5004080;28;20068;-61
2023/08/27 00:17:59;;;;;;;19.00;5.07;;;;;;;;;;4993611;28;20053;-61
2023/08/27 00:20:47;;;;;;;14.40;5.03;;;;;;;;;;5003250;28;20128;-61
2023/08/27 00:23:40;;;;;;;19.50;5.45;;;;;;;;;;5001506;28;20100;-51
2023/08/27 00:26:28;;;;;;;23.45;6.50;;;;;;;;;;5000550;28;20061;-51
2023/08/27 00:29:21;;;;;;;19.48;5.35;;;;;;;;;;5003222;28;20111;-53
2023/08/27 00:32:09;;;;;;;13.98;4.75;;;;;;;;;;5003715;28;20128;-50
2023/08/27 00:35:03;;;;;;;16.50;4.82;;;;;;;;;;5000839;28;20041;-49
2023/08/27 00:37:50;;;;;;;23.58;5.82;;;;;;;;;;5002465;28;20100;-63
2023/08/27 00:40:43;;;;;;;28.75;6.50;;;;;;;;;;5000387;28;20104;-64
2023/08/27 00:43:11;;;;;;;20.67;5.82;;;;;;;;;;4996651;28;20054;-63
2023/08/27 00:45:45;;;;;;;26.85;6.00;;;;;;;;;;4997244;28;20058;-63
2023/08/27 00:48:20;;;;;;;19.30;5.03;;;;;;;;;;4998621;28;20045;-63
2023/08/27 00:50:47;;;;;;;19.55;5.50;;;;;;;;;;4998446;28;20497;-52
2023/08/27 00:53:15;;;;;;;25.55;6.25;;;;;;;;;;4998178;28;20270;-51
2023/08/27 00:55:51;;;;;;;17.35;5.47;;;;;;;;;;4999846;28;20053;-52
2023/08/27 00:58:18;;;;;;;22.17;6.13;;;;;;;;;;4997123;28;20049;-48
2023/08/27 01:00:52;;;;;;;18.88;5.82;;;;;;;;;;4993535;28;20093;-52
2023/08/27 01:03:19;;;;;;;19.38;5.72;;;;;;;;;;4997507;28;20060;-48
2023/08/27 01:05:46;;;;;;;26.42;5.78;;;;;;;;;;5000519;28;20058;-50
2023/08/27 01:08:25;;;;;;;35.35;6.13;;;;;;;;;;4997493;28;20076;-52
2023/08/27 01:11:01;;;;;;;23.58;5.28;;;;;;;;;;4996630;28;20555;-49
2023/08/27 01:13:39;;;;;;;22.70;4.90;;;;;;;;;;4996368;28;20057;-49
2023/08/27 01:16:06;;;;;;;14.18;5.20;;;;;;;;;;4999873;28;20069;-64
2023/08/27 01:18:33;;;;;;;;;;;;;;;;;;4997730;28;20147;-61
2023/08/27 01:21:19;;;;;;;22.05;4.90;;;;;;;;;;4999067;28;19921;-61
2023/08/27 01:23:46;;;;;;;17.95;4.85;;;;;;;;;;4996224;28;20832;-61
2023/08/27 01:26:23;;;;;;;26.92;5.40;;;;;;;;;;4998984;28;20050;-61
2023/08/27 01:28:55;;;;;;;22.27;5.55;;;;;;;;;;4994297;28;20038;-61
2023/08/27 01:31:30;;;;;;;21.45;4.95;;;;;;;;;;4998199;28;20134;-61
2023/08/27 01:33:59;;;;;;;22.25;4.47;;;;;;;;;;4997608;28;20054;-58
2023/08/27 01:36:35;;;;;;;15.38;4.53;;;;;;;;;;4998015;28;20045;-58
2023/08/27 01:39:04;;;;;;;18.63;4.47;;;;;;;;;;4994809;28;20052;-58
2023/08/27 01:41:31;;;;;;;18.85;4.68;;;;;;;;;;4993928;28;20678;-58
2023/08/27 01:44:17;;;;;;;18.52;5.00;;;;;;;;;;4999649;28;20061;-61
2023/08/27 01:46:51;;;;;;;17.75;3.80;;;;;;;;;;4997070;28;20886;-58
2023/08/27 01:49:26;;;;;;;17.23;4.50;;;;;;;;;;4993771;28;20133;-49
2023/08/27 01:51:53;;;;;;;18.85;4.10;;;;;;;;;;4993723;28;20069;-50
2023/08/27 01:54:27;;;;;;;22.80;5.03;;;;;;;;;;4990330;28;20096;-50
2023/08/27 01:56:54;;;;;;;15.00;4.43;;;;;;;;;;4993729;28;20593;-53
2023/08/27 01:59:24;;;;;;;13.70;4.70;;;;;;;;;;4998320;28;20524;-50
2023/08/27 02:01:58;;;;;;;21.55;4.38;;;;;;;;;;5001540;28;20046;-52
2023/08/27 02:04:25;;;;;;;16.15;4.38;;;;;;;;;;4994134;28;20068;-58
2023/08/27 02:06:59;;;;;;;19.13;4.93;;;;;;;;;;4995908;28;20066;-58
2023/08/27 02:09:27;;;;;;;13.48;5.00;;;;;;;;;;4996333;28;20140;-58
2023/08/27 02:11:54;;;;;;;20.20;4.43;;;;;;;;;;4994778;28;20119;-59
2023/08/27 02:14:28;;;;;;;18.20;4.60;;;;;;;;;;4995129;28;20046;-61
2023/08/27 02:16:55;;;;;;;15.52;4.82;;;;;;;;;;5000679;28;20108;-64
2023/08/27 02:19:29;;;;;;;16.48;4.65;;;;;;;;;;5000583;28;20041;-63
2023/08/27 02:21:56;;;;;;;22.23;4.82;;;;;;;;;;5000374;28;20143;-64
2023/08/27 02:24:50;;;;;;;22.85;5.15;;;;;;;;;;4999864;28;20049;-63
2023/08/27 02:27:37;;;;;;;22.05;4.40;;;;;;;;;;5000377;28;20390;-64
2023/08/27 02:30:31;;;;;;;20.58;5.18;;;;;;;;;;5001764;28;20100;-63
2023/08/27 02:33:21;;;;;;;24.35;4.88;;;;;;;;;;4999702;28;20049;-64
2023/08/27 02:36:15;;;;;;;16.10;4.13;;;;;;;;;;5002008;28;20054;-64
2023/08/27 02:39:02;;;;;;;11.48;4.38;;;;;;;;;;5001564;28;20054;-63
2023/08/27 02:41:55;;;;;;;28.58;5.95;;;;;;;;;;5002011;28;20461;-53
2023/08/27 02:44:49;;;;;;;22.40;5.30;;;;;;;;;;4999698;28;20127;-52
2023/08/27 02:47:43;;;;;;;26.52;5.32;;;;;;;;;;5001024;28;20079;-54
2023/08/27 02:50:30;;;;;;;19.63;5.25;;;;;;;;;;5002245;28;20046;-53
2023/08/27 02:53:23;;;;;;;19.77;5.15;;;;;;;;;;4999925;28;20050;-53
2023/08/27 02:56:11;;;;;;;20.55;5.80;;;;;;;;;;5001728;28;20307;-53
2023/08/27 02:59:05;;;;;;;24.63;6.00;;;;;;;;;;5003176;28;20050;-53
2023/08/27 03:01:52;;;;;;;21.13;6.57;;;;;;;;;;5001977;28;20501;-62
2023/08/27 03:04:46;;;;;;;19.67;6.57;;;;;;;;;;5002426;28;20456;-61
2023/08/27 03:07:33;;;;;;;18.40;6.30;;;;;;;;;;5001870;28;20057;-61
2023/08/27 03:10:26;;;;;;;23.55;5.93;;;;;;;;;;5002130;28;20058;-60
2023/08/27 03:13:21;;;;;;;22.55;6.38;;;;;;;;;;4996478;28;20159;-58
2023/08/27 03:16:15;;;;;;;20.85;6.18;;;;;;;;;;5000109;28;20097;-58
2023/08/27 03:19:02;;;;;;;20.25;5.93;;;;;;;;;;5001535;28;20042;-58
2023/08/27 03:21:55;;;;;;;17.83;6.35;;;;;;;;;;5002647;28;20100;-58
2023/08/27 03:24:50;;;;;;;24.45;6.60;;;;;;;;;;4997210;28;20077;-58
2023/08/27 03:27:44;;;;;;;22.48;6.18;;;;;;;;;;4997748;28;20107;-58
2023/08/27 03:30:31;;;;;;;17.15;6.20;;;;;;;;;;4995891;28;20058;-58
2023/08/27 03:33:24;;;;;;;21.00;6.80;;;;;;;;;;4994374;28;20046;-57
2023/08/27 03:36:12;;;;;;;19.60;7.03;;;;;;;;;;5000758;28;20046;-58
2023/08/27 03:39:06;;;;;;;16.55;5.95;;;;;;;;;;5000025;28;20781;-50
2023/08/27 03:41:53;;;;;;;19.50;6.45;;;;;;;;;;5002996;28;20119;-58
2023/08/27 03:44:53;;;;;;;24.30;7.75;;;;;;;;;;4995189;28;20069;-58
2023/08/27 03:47:47;;;;;;;17.15;7.88;;;;;;;;;;4998785;28;20144;-58
2023/08/27 03:50:41;;;;;;;26.42;7.63;;;;;;;;;;4996825;28;20042;-58
2023/08/27 03:53:28;;;;;;;30.05;8.30;;;;;;;;;;5000349;28;20328;-57
2023/08/27 03:56:22;;;;;;;21.52;7.55;;;;;;;;;;4999747;28;20053;-62
2023/08/27 03:59:09;;;;;;;21.52;7.75;;;;;;;;;;5000906;28;20045;-61
2023/08/27 04:02:03;;;;;;;20.40;7.78;;;;;;;;;;4998787;28;20046;-61
2023/08/27 04:04:50;;;;;;;30.05;8.88;;;;;;;;;;5002971;28;20455;-61
2023/08/27 04:07:44;;;;;;;27.65;8.02;;;;;;;;;;5000505;28;20060;-61
2023/08/27 04:10:31;;;;;;;21.25;8.07;;;;;;;;;;5000741;28;20053;-58
2023/08/27 04:13:25;;;;;;;25.27;7.72;;;;;;;;;;4998341;28;20049;-58
2023/08/27 04:16:12;;;;;;;34.05;9.13;;;;;;;;;;5001459;28;20053;-58
2023/08/27 04:19:06;;;;;;;30.95;8.95;;;;;;;;;;4996919;28;20041;-58
2023/08/27 04:21:53;;;;;;;19.50;8.02;;;;;;;;;;5004454;28;20042;-58
2023/08/27 04:24:47;;;;;;;24.08;7.40;;;;;;;;;;5003094;28;20050;-63
2023/08/27 04:27:34;;;;;;;15.43;6.57;;;;;;;;;;4999881;28;20072;-63
2023/08/27 04:30:28;;;;;;;21.85;7.32;;;;;;;;;;5001460;28;20049;-63
2023/08/27 04:33:15;;;;;;;19.48;6.40;;;;;;;;;;5002722;28;20050;-64
2023/08/27 04:36:09;;;;;;;23.35;8.27;;;;;;;;;;5001489;28;20049;-54
2023/08/27 04:38:56;;;;;;;19.65;6.93;;;;;;;;;;5000706;28;20100;-50
2023/08/27 04:41:50;;;;;;;23.60;8.07;;;;;;;;;;4999836;28;20566;-50
2023/08/27 04:44:43;;;;;;;26.67;8.27;;;;;;;;;;5000407;28;20061;-48
2023/08/27 04:47:38;;;;;;;17.75;6.68;;;;;;;;;;5004743;28;20112;-51
2023/08/27 04:50:25;;;;;;;26.23;7.00;;;;;;;;;;5002627;28;20084;-50
2023/08/27 04:53:20;;;;;;;16.73;6.60;;;;;;;;;;5002325;28;20124;-52
2023/08/27 04:56:07;;;;;;;24.25;8.13;;;;;;;;;;4997355;28;20579;-49
2023/08/27 04:59:00;;;;;;;24.65;6.95;;;;;;;;;;5000183;28;20077;-51
2023/08/27 05:01:48;;;;;;;24.80;7.97;;;;;;;;;;5001056;28;20092;-48
2023/08/27 05:04:43;;;;;;;22.60;6.68;;;;;;;;;;4997955;28;20050;-64
2023/08/27 05:07:31;;;;;;;23.73;6.95;;;;;;;;;;4998434;28;20050;-61
2023/08/27 05:10:24;;;;;;;12.80;5.70;;;;;;;;;;4994555;28;20116;-61
2023/08/27 05:13:17;;;;;;;18.80;7.10;;;;;;;;;;4997218;28;20461;-61
2023/08/27 05:16:12;;;;;;;19.13;7.22;;;;;;;;;;4995519;28;20624;-61
2023/08/27 05:18:59;;;;;;;19.48;7.05;;;;;;;;;;4979907;28;20104;-61
2023/08/27 05:21:53;;;;;;;25.50;6.22;;;;;;;;;;4997147;28;20100;-51
2023/08/27 05:24:40;;;;;;;12.77;5.13;;;;;;;;;;4997072;28;20042;-49
2023/08/27 05:27:33;;;;;;;15.55;5.38;;;;;;;;;;4997247;28;20128;-50
2023/08/27 05:30:21;;;;;;;21.60;7.03;;;;;;;;;;4996395;28;20134;-51
2023/08/27 05:33:15;;;;;;;11.95;5.38;;;;;;;;;;4998441;28;20673;-58
2023/08/27 05:36:02;;;;;;;14.27;5.38;;;;;;;;;;5000150;28;20073;-61
2023/08/27 05:38:56;;;;;;;17.30;5.97;;;;;;;;;;5000457;28;20464;-61
2023/08/27 05:41:43;;;;;;;22.85;5.55;;;;;;;;;;4997665;28;20058;-61
2023/08/27 05:44:49;;;;;;;21.48;6.40;;;;;;;;;;4997984;28;20127;-60
2023/08/27 05:47:44;;;;;;;16.42;5.80;;;;;;;;;;4990454;28;20437;-61
2023/08/27 05:50:38;;;;;;;17.67;5.55;;;;;;;;;;5002707;28;20050;-53
2023/08/27 05:53:25;;;;;;;20.98;6.72;;;;;;;;;;5004013;28;20068;-52
2023/08/27 05:56:18;;;;;;;14.02;5.30;;;;;;;;;;4996577;28;20050;-52
2023/08/27 05:59:06;;;;;;;16.02;5.20;;;;;;;;;;4998161;28;20037;-48
2023/08/27 06:02:00;;;;;;;11.82;5.03;;;;;;;;;;5000923;28;20056;-59
2023/08/27 06:04:47;;;;;;;21.40;5.32;;;;;;;;;;5001033;28;20057;-65
2023/08/27 06:07:41;;;;;;;16.38;5.13;;;;;;;;;;4990254;28;20076;-64
2023/08/27 06:10:29;;;;;;;16.05;4.65;;;;;;;;;;4998102;28;20056;-65
2023/08/27 06:13:23;;;;;;;13.52;4.93;;;;;;;;;;4988792;28;20046;-64
2023/08/27 06:16:10;;;;;;;12.27;4.65;;;;;;;;;;4989692;28;22967;-64
2023/08/27 06:19:04;;;;;;;5.68;3.50;;;;;;;;;;4994945;28;20050;-63
2023/08/27 06:22:05;;;;;;;17.38;5.85;;;;;;;;;;4999227;28;20417;-63
2023/08/27 06:24:58;;;;;;;12.57;4.60;;;;;;;;;;5000435;28;20054;-63
2023/08/27 06:27:46;;;;;;;20.92;5.40;;;;;;;;;;5005477;28;20078;-63
2023/08/27 06:30:41;;;;;;;18.60;4.63;;;;;;;;;;5000800;28;20055;-62
2023/08/27 06:33:28;;;;;;;16.33;4.72;;;;;;;;;;5004769;28;20057;-61
2023/08/27 06:36:22;;;;;;;12.52;4.80;;;;;;;;;;5004360;28;20460;-61
2023/08/27 06:39:09;;;;;;;12.50;4.53;;;;;;;;;;5001404;28;20046;-61
2023/08/27 06:42:03;;;;;;;17.90;4.20;;;;;;;;;;4992578;28;20128;-60
2023/08/27 06:44:30;;;;;;;;;;;;;;;;;;5000401;28;20062;-61
2023/08/27 06:47:04;;;;;;;12.77;3.72;;;;;;;;;;5003039;28;19975;-60
2023/08/27 06:49:39;;;;;;;7.95;3.33;;;;;;;;;;4998604;28;20042;-58
2023/08/27 06:52:06;;;;;;;9.07;2.78;;;;;;;;;;5003485;28;20046;-63
2023/08/27 06:55:00;;;;;;;8.15;2.78;;;;;;;;;;5001282;28;20560;-63
2023/08/27 06:57:47;;;;;;;12.77;2.80;;;;;;;;;;4998894;28;20056;-63
2023/08/27 07:00:41;;;;;;;16.40;3.53;;;;;;;;;;4999128;28;20103;-63
2023/08/27 07:03:29;;;;;;;8.27;2.85;;;;;;;;;;4996335;28;20053;-63
2023/08/27 07:06:22;;;;;;;12.35;3.65;;;;;;;;;;4998488;28;20560;-63
2023/08/27 07:09:16;;;;;;;9.32;3.20;;;;;;;;;;4986940;28;20468;-55
2023/08/27 07:12:03;;;;;;;12.05;3.30;;;;;;;;;;5001920;28;20050;-48
2023/08/27 07:14:57;;;;;;;7.28;2.10;;;;;;;;;;5002655;28;20054;-55
2023/08/27 07:17:44;;;;;;;10.18;2.40;;;;;;;;;;4998283;28;20056;-51
2023/08/27 07:20:38;;;;;;;13.90;3.00;;;;;;;;;;4997617;28;20054;-51
2023/08/27 07:23:26;;;;;;;11.13;2.70;;;;;;;;;;5001531;28;20687;-53
2023/08/27 07:26:19;;;;;;;6.88;1.80;;;;;;;;;;5000294;28;20050;-59
2023/08/27 07:29:06;;;;;;;9.20;2.63;;;;;;;;;;4999879;28;20508;-59
2023/08/27 07:32:00;;;;;;;11.88;1.90;;;;;;;;;;4999847;28;20050;-58
2023/08/27 07:34:47;;;;;;;6.35;2.47;;;;;;;;;;5002236;28;20564;-58
2023/08/27 07:37:41;;;;;;;12.43;2.80;;;;;;;;;;5000320;28;20057;-58
2023/08/27 07:40:34;;;;;;;10.77;2.70;;;;;;;;;;4995567;28;20494;-58
2023/08/27 07:43:28;;;;;;;11.07;2.72;;;;;;;;;;4998668;28;20057;-59
2023/08/27 07:46:21;;;;;;;11.73;2.30;;;;;;;;;;4997196;28;20061;-62
2023/08/27 07:49:16;;;;;;;8.75;2.65;;;;;;;;;;4998578;28;20057;-62
2023/08/27 07:52:03;;;;;;;6.18;2.65;;;;;;;;;;5000017;28;20050;-62
2023/08/27 07:55:03;;;;;;;4.70;2.08;;;;;;;;;;5001630;28;20144;-61
2023/08/27 07:57:51;;;;;;;7.65;2.22;;;;;;;;;;4998543;28;20049;-62
2023/08/27 08:00:45;;;;;;;7.75;1.70;;;;;;;;;;4996901;28;20665;-52
2023/08/27 08:03:32;;;;;;;9.30;2.15;;;;;;;;;;5000148;28;20065;-61
2023/08/27 08:06:26;;;;;;;8.52;2.53;;;;;;;;;;5000246;28;20764;-58
2023/08/27 08:09:14;;;;;;;7.90;2.65;;;;;;;;;;4997329;28;20520;-58
2023/08/27 08:12:07;;;;;;;3.60;1.63;;;;;;;;;;4997490;28;20551;-58
2023/08/27 08:14:54;;;;;;;5.53;2.08;;;;;;;;;;5002982;28;20050;-59
2023/08/27 08:17:48;;;;;;;5.68;2.25;;;;;;;;;;4997390;28;20057;-58
2023/08/27 08:20:35;;;;;;;4.20;1.73;;;;;;;;;;5000057;28;20037;-59
2023/08/27 08:23:29;;;;;;;9.20;2.00;;;;;;;;;;4999426;28;20042;-65
2023/08/27 08:26:23;;;;;;;7.60;1.75;;;;;;;;;;5002082;28;20058;-65
2023/08/27 08:29:10;;;;;;;5.05;1.83;;;;;;;;;;5000727;28;20120;-65
2023/08/27 08:32:04;;;;;;;6.75;1.90;;;;;;;;;;4998059;28;21816;-65
2023/08/27 08:34:51;;;;;;;6.63;1.70;;;;;;;;;;4996566;28;20046;-66
2023/08/27 08:37:45;;;;;;;6.07;2.33;;;;;;;;;;5002930;28;20567;-65
2023/08/27 08:40:35;;;;;;;4.50;1.70;;;;;;;;;;4996183;28;20551;-65
2023/08/27 08:43:47;;;;;;;5.60;2.20;;;;;;;;;;4998946;28;20045;-65
2023/08/27 08:46:41;;;;;;;5.50;2.00;;;;;;;;;;4994266;28;20072;-65
2023/08/27 08:49:40;;;;;;;7.82;1.80;;;;;;;;;;4991360;28;20073;-66
2023/08/27 08:52:27;;;;;;;2.00;1.35;;;;;;;;;;4992956;28;20077;-58
2023/08/27 08:55:23;;;;;;;6.03;1.70;;;;;;;;;;4994254;28;20505;-57
2023/08/27 08:58:11;;;;;;;4.85;1.45;;;;;;;;;;5002812;28;20493;-57
2023/08/27 09:01:05;;;;;;;4.15;1.70;;;;;;;;;;4998512;28;20050;-57
2023/08/27 09:03:52;;;;;;;7.00;1.58;;;;;;;;;;4999903;28;20408;-57
2023/08/27 09:06:46;;;;;;;4.50;1.85;;;;;;;;;;4999212;28;20497;-64
2023/08/27 09:09:34;;;;;;;8.40;2.10;;;;;;;;;;4999085;28;20078;-65
2023/08/27 09:12:28;;;;;;;4.43;1.88;;;;;;;;;;5001901;28;20060;-65
2023/08/27 09:15:22;;;;;;;4.40;2.20;;;;;;;;;;5001081;28;20055;-65
2023/08/27 09:18:09;;;;;;;4.88;1.75;;;;;;;;;;4994776;28;20568;-58
2023/08/27 09:21:03;;;;;;;4.28;1.73;;;;;;;;;;5000303;28;20418;-64
2023/08/27 09:23:50;;;;;;;3.45;2.00;;;;;;;;;;5001779;28;20038;-64
2023/08/27 09:26:44;;;;;;;6.35;2.03;;;;;;;;;;4997095;28;20050;-64
2023/08/27 09:29:31;;;;;;;2.80;1.85;;;;;;;;;;5002875;28;20112;-65
2023/08/27 09:32:25;;;;;;;3.85;1.83;;;;;;;;;;5001069;28;20092;-64
2023/08/27 09:35:12;;;;;;;5.43;1.85;;;;;;;;;;5000681;28;20446;-52
2023/08/27 09:38:06;;;;;;;4.25;1.85;;;;;;;;;;4996713;28;20049;-50
2023/08/27 09:40:53;;;;;;;8.43;2.28;;;;;;;;;;4998315;28;20106;-54
2023/08/27 09:44:01;;;;;;;3.33;1.48;;;;;;;;;;4988117;28;20057;-53
2023/08/27 09:47:03;;;;;;;7.82;1.90;;;;;;;;;;4994251;28;20085;-47
2023/08/27 09:49:57;;;;;;;7.40;2.03;;;;;;;;;;5001032;28;20137;-63
2023/08/27 09:52:44;;;;;;;6.25;1.85;;;;;;;;;;4995940;28;20050;-64
2023/08/27 09:55:38;;;;;;;6.47;2.00;;;;;;;;;;4999307;28;20064;-63
2023/08/27 09:58:26;;;;;;;2.92;1.60;;;;;;;;;;4995003;28;20065;-64
2023/08/27 10:01:20;;;;;;;6.82;2.05;;;;;;;;;;5004420;28;20069;-64
2023/08/27 10:04:10;;;;;;;4.13;1.55;;;;;;;;;;4997514;28;20745;-60
2023/08/27 10:07:03;;;;;;;5.03;2.05;;;;;;;;;;5000464;28;20085;-60
2023/08/27 10:09:50;;;;;;;8.18;2.30;;;;;;;;;;4998342;28;20049;-60
2023/08/27 10:12:43;;;;;;;6.05;1.67;;;;;;;;;;4997537;28;20056;-60
2023/08/27 10:15:31;;;;;;;7.20;1.95;;;;;;;;;;5004673;28;20049;-64
2023/08/27 10:18:24;;;;;;;4.47;1.60;;;;;;;;;;5004176;28;20129;-61
2023/08/27 10:21:12;;;;;;;5.32;1.83;;;;;;;;;;5004832;28;20092;-60
2023/08/27 10:24:06;;;;;;;4.78;1.90;;;;;;;;;;5001684;28;20065;-61
2023/08/27 10:26:53;;;;;;;7.53;1.97;;;;;;;;;;5004274;28;20107;-61
2023/08/27 10:29:48;;;;;;;4.57;2.08;;;;;;;;;;5001996;28;20394;-61
2023/08/27 10:32:35;;;;;;;2.35;1.70;;;;;;;;;;4996034;28;20104;-61
2023/08/27 10:35:29;;;;;;;2.97;1.80;;;;;;;;;;4997194;28;20053;-61
2023/08/27 10:38:17;;;;;;;3.72;1.92;;;;;;;;;;5004773;28;20045;-61
2023/08/27 10:41:15;;;;;;;3.03;1.75;;;;;;;;;;5004605;28;20171;-61
2023/08/27 10:44:03;;;;;;;4.57;1.58;;;;;;;;;;4999416;28;20061;-67
2023/08/27 10:47:17;;;;;;;3.60;1.90;;;;;;;;;;4982772;28;20050;-59
2023/08/27 10:50:04;;;;;;;5.57;2.08;;;;;;;;;;4977737;28;20053;-61
2023/08/27 10:52:58;;;;;;;6.30;2.15;;;;;;;;;;4977626;28;20878;-60
2023/08/27 10:55:52;;;;;;;6.30;1.98;;;;;;;;;;4983980;28;20096;-60
2023/08/27 10:58:46;;;;;;;4.43;1.70;;;;;;;;;;4985451;28;20101;-60
2023/08/27 11:01:37;;;;;;;6.60;1.60;;;;;;;;;;4981817;28;20129;-59
2023/08/27 11:04:35;;;;;;;3.22;1.50;;;;;;;;;;4975703;28;20046;-58
2023/08/27 11:07:22;;;;;;;3.88;1.67;;;;;;;;;;4980277;28;20568;-59
2023/08/27 11:10:17;;;;;;;3.13;1.58;;;;;;;;;;4985068;28;20054;-66
2023/08/27 11:13:04;;;;;;;7.63;2.03;;;;;;;;;;4980865;28;20054;-60
2023/08/27 11:15:58;;;;;;;3.55;1.65;;;;;;;;;;4985038;28;20092;-58
2023/08/27 11:18:49;;;;;;;5.20;1.70;;;;;;;;;;4981497;28;20050;-58
2023/08/27 11:21:47;;;;;;;4.30;1.65;;;;;;;;;;4977299;28;20050;-59
2023/08/27 11:24:34;;;;;;;4.95;1.80;;;;;;;;;;4980146;28;20086;-58
2023/08/27 11:27:30;;;;;;;4.25;1.83;;;;;;;;;;4982181;28;20054;-58
2023/08/27 11:30:16;;;;;;;2.13;1.88;;;;;;;;;;4982912;28;20054;-59
2023/08/27 11:33:14;;;;;;;4.68;1.70;;;;;;;;;;4985444;28;20418;-59
2023/08/27 11:36:06;;;;;;;3.95;1.70;;;;;;;;;;4981138;28;20506;-59
2023/08/27 11:39:05;;;;;;;3.38;1.50;;;;;;;;;;4981913;28;20104;-59
2023/08/27 11:41:51;;;;;;;4.80;1.80;;;;;;;;;;4984941;28;20055;-63
2023/08/27 11:44:57;;;;;;;4.85;1.85;;;;;;;;;;4980132;28;20446;-64
2023/08/27 11:47:52;;;;;;;9.13;2.53;;;;;;;;;;5003363;28;20464;-63
2023/08/27 11:50:48;;;;;;;2.25;1.55;;;;;;;;;;5001512;28;20133;-63
2023/08/27 11:53:35;;;;;;;4.68;1.70;;;;;;;;;;4999492;28;20054;-63
2023/08/27 11:56:29;;;;;;;2.67;1.40;;;;;;;;;;4999598;28;20584;-63
2023/08/27 11:59:17;;;;;;;3.20;1.63;;;;;;;;;;5001175;28;20084;-61
2023/08/27 12:02:12;;;;;;;5.88;1.80;;;;;;;;;;4992633;28;20579;-60
2023/08/27 12:04:58;;;;;;;3.70;1.40;;;;;;;;;;4998489;28;20128;-61
2023/08/27 12:07:52;;;;;;;2.50;1.40;;;;;;;;;;4996368;28;20108;-58
2023/08/27 12:10:45;;;;;;;5.68;1.80;;;;;;;;;;4996988;28;20042;-59
2023/08/27 12:13:39;;;;;;;2.90;1.70;;;;;;;;;;5000490;28;20050;-59
2023/08/27 12:16:33;;;;;;;3.67;1.38;;;;;;;;;;4997969;28;20417;-59
2023/08/27 12:19:27;;;;;;;2.60;1.48;;;;;;;;;;4999443;28;20042;-58
2023/08/27 12:22:17;;;;;;;3.42;1.52;;;;;;;;;;5000447;28;20133;-58
2023/08/27 12:25:09;;;;;;;4.22;1.55;;;;;;;;;;5004157;28;20045;-53
2023/08/27 12:27:56;;;;;;;4.90;1.60;;;;;;;;;;4991753;28;20062;-53
2023/08/27 12:30:52;;;;;;;8.57;1.77;;;;;;;;;;4998326;28;20574;-51
2023/08/27 12:33:45;;;;;;;1.95;1.40;;;;;;;;;;4999257;28;20057;-54
2023/08/27 12:36:32;;;;;;;9.30;1.65;;;;;;;;;;4990216;28;20414;-50
2023/08/27 12:39:26;;;;;;;8.35;1.92;;;;;;;;;;4999090;28;21296;-63
2023/08/27 12:42:14;;;;;;;2.92;1.42;;;;;;;;;;4997816;28;20088;-63
2023/08/27 12:45:20;;;;;;;4.28;1.50;;;;;;;;;;4995011;28;20414;-62
2023/08/27 12:48:14;;;;;;;2.45;1.25;;;;;;;;;;4992412;28;20143;-63
2023/08/27 12:51:08;;;;;;;4.00;1.45;;;;;;;;;;4997207;28;20116;-62
2023/08/27 12:53:55;;;;;;;5.28;1.73;;;;;;;;;;5000221;28;20116;-59
2023/08/27 12:56:49;;;;;;;7.60;1.40;;;;;;;;;;4992979;28;20041;-59
2023/08/27 12:59:36;;;;;;;5.03;1.63;;;;;;;;;;4993015;28;20046;-60
2023/08/27 13:02:30;;;;;;;2.78;1.40;;;;;;;;;;4992787;28;20054;-60
2023/08/27 13:05:17;;;;;;;2.75;1.50;;;;;;;;;;4997709;28;20141;-51
2023/08/27 13:08:11;;;;;;;5.20;2.08;;;;;;;;;;4994561;28;20049;-60
2023/08/27 13:10:58;;;;;;;3.55;1.48;;;;;;;;;;4994724;28;20579;-61
2023/08/27 13:13:52;;;;;;;4.57;1.70;;;;;;;;;;4999862;28;20045;-61
2023/08/27 13:16:39;;;;;;;2.40;1.30;;;;;;;;;;4999590;28;20053;-60
2023/08/27 13:19:33;;;;;;;4.95;1.52;;;;;;;;;;4996225;28;20046;-61
2023/08/27 13:22:20;;;;;;;2.40;1.33;;;;;;;;;;4998410;28;20050;-59
2023/08/27 13:25:14;;;;;;;2.47;1.30;;;;;;;;;;4998244;28;20104;-59
2023/08/27 13:28:02;;;;;;;3.53;1.70;;;;;;;;;;4995787;28;20073;-59
2023/08/27 13:30:55;;;;;;;4.30;1.58;;;;;;;;;;4996736;28;21989;-59
2023/08/27 13:33:42;;;;;;;2.30;1.27;;;;;;;;;;4997861;28;20049;-53
2023/08/27 13:36:36;;;;;;;2.58;1.48;;;;;;;;;;4996394;28;20104;-58
2023/08/27 13:39:30;;;;;;;3.38;1.30;;;;;;;;;;4999482;28;20082;-58
2023/08/27 13:42:17;;;;;;;2.22;1.08;;;;;;;;;;4995324;28;20096;-58
2023/08/27 13:45:32;;;;;;;3.08;1.50;;;;;;;;;;4999107;28;20057;-57
2023/08/27 13:48:26;;;;;;;3.83;1.23;;;;;;;;;;4998755;28;20141;-57
2023/08/27 13:51:20;;;;;;;2.55;1.40;;;;;;;;;;4999465;28;20124;-51
2023/08/27 13:54:14;;;;;;;3.55;1.38;;;;;;;;;;4996699;28;20054;-49
2023/08/27 13:57:08;;;;;;;6.80;1.60;;;;;;;;;;4998260;28;20038;-51
2023/08/27 13:59:55;;;;;;;6.82;1.60;;;;;;;;;;4991737;28;20050;-52
2023/08/27 14:02:49;;;;;;;4.95;1.50;;;;;;;;;;4997456;28;20052;-57
2023/08/27 14:05:36;;;;;;;1.98;1.30;;;;;;;;;;4998670;28;20092;-48
2023/08/27 14:08:30;;;;;;;3.83;1.48;;;;;;;;;;4997661;28;20088;-49
2023/08/27 14:11:17;;;;;;;4.18;1.40;;;;;;;;;;4997113;28;20579;-52
2023/08/27 14:14:11;;;;;;;3.28;1.27;;;;;;;;;;4993634;28;20568;-52
2023/08/27 14:17:05;;;;;;;7.63;1.70;;;;;;;;;;4998246;28;20042;-51
2023/08/27 14:19:59;;;;;;;2.28;1.42;;;;;;;;;;4993865;28;20042;-62
2023/08/27 14:22:46;;;;;;;5.65;1.55;;;;;;;;;;4995056;28;20136;-63
2023/08/27 14:25:41;;;;;;;2.72;1.70;;;;;;;;;;4993174;28;20053;-62
2023/08/27 14:28:27;;;;;;;3.30;1.60;;;;;;;;;;4996905;28;20104;-62
2023/08/27 14:31:21;;;;;;;5.22;1.70;;;;;;;;;;5000166;28;20131;-63
2023/08/27 14:34:09;;;;;;;3.53;1.63;;;;;;;;;;4998178;28;20054;-62
2023/08/27 14:37:03;;;;;;;4.13;1.65;;;;;;;;;;4993765;28;20046;-62
2023/08/27 14:39:57;;;;;;;4.85;1.80;;;;;;;;;;4997237;28;20062;-61
2023/08/27 14:42:51;;;;;;;3.88;1.90;;;;;;;;;;4997812;28;20163;-62
2023/08/27 14:45:45;;;;;;;3.78;1.52;;;;;;;;;;4996605;28;20046;-62
2023/08/27 14:48:45;;;;;;;2.55;1.40;;;;;;;;;;5001998;28;20049;-62
2023/08/27 14:51:32;;;;;;;3.28;1.45;;;;;;;;;;5002387;28;20559;-62
2023/08/27 14:54:26;;;;;;;3.03;1.23;;;;;;;;;;5003484;28;20042;-62
2023/08/27 14:57:13;;;;;;;4.95;1.67;;;;;;;;;;4995401;28;20053;-62
2023/08/27 15:00:08;;;;;;;2.78;1.45;;;;;;;;;;4997881;28;20054;-58
2023/08/27 15:02:55;;;;;;;2.55;1.50;;;;;;;;;;4995645;28;20049;-58
2023/08/27 15:05:49;;;;;;;4.13;1.65;;;;;;;;;;4998411;28;20505;-59
2023/08/27 15:08:36;;;;;;;6.03;1.60;;;;;;;;;;4996590;28;20132;-59
2023/08/27 15:11:30;;;;;;;4.68;1.45;;;;;;;;;;4996924;28;20505;-59
2023/08/27 15:14:20;;;;;;;3.42;1.45;;;;;;;;;;4998324;28;20050;-59
2023/08/27 15:17:17;;;;;;;2.55;1.30;;;;;;;;;;4998956;28;20074;-61
2023/08/27 15:20:04;;;;;;;5.03;1.55;;;;;;;;;;4995205;28;20054;-62
2023/08/27 15:22:58;;;;;;;2.33;1.40;;;;;;;;;;4998559;28;20104;-63
2023/08/27 15:25:45;;;;;;;2.92;1.60;;;;;;;;;;5000731;28;20054;-62
2023/08/27 15:28:39;;;;;;;3.25;1.52;;;;;;;;;;4995615;28;20085;-59
2023/08/27 15:31:26;;;;;;;3.67;1.13;;;;;;;;;;5001149;28;20862;-61
2023/08/27 15:34:20;;;;;;;3.05;1.50;;;;;;;;;;4998689;28;20124;-60
2023/08/27 15:37:07;;;;;;;2.95;1.33;;;;;;;;;;5000544;28;20041;-61
2023/08/27 15:40:01;;;;;;;1.63;1.30;;;;;;;;;;5001483;28;20060;-61
2023/08/27 15:43:02;;;;;;;4.15;1.65;;;;;;;;;;4995305;28;20050;-60
2023/08/27 15:46:02;;;;;;;3.05;1.42;;;;;;;;;;4994452;28;20085;-63
2023/08/27 15:48:49;;;;;;;3.63;1.30;;;;;;;;;;4996405;28;20073;-63
2023/08/27 15:51:43;;;;;;;2.33;1.05;;;;;;;;;;5002068;28;20494;-62
2023/08/27 15:54:30;;;;;;;2.45;1.20;;;;;;;;;;4986202;28;20119;-63
2023/08/27 15:57:24;;;;;;;1.92;1.17;;;;;;;;;;4991968;28;20100;-63
2023/08/27 16:00:12;;;;;;;2.50;1.27;;;;;;;;;;5000780;28;20050;-63
2023/08/27 16:03:06;;;;;;;6.18;1.40;;;;;;;;;;4995497;28;20596;-62
2023/08/27 16:05:53;;;;;;;1.50;1.30;;;;;;;;;;4991870;28;20134;-63
2023/08/27 16:08:47;;;;;;;1.10;0.95;;;;;;;;;;4992890;28;20297;-63
2023/08/27 16:11:34;;;;;;;2.85;1.20;;;;;;;;;;4985007;28;20123;-63
2023/08/27 16:14:28;;;;;;;3.05;0.98;;;;;;;;;;4990044;28;20042;-63
2023/08/27 16:17:22;;;;;;;1.70;1.00;;;;;;;;;;5002218;28;20958;-63
2023/08/27 16:20:10;;;;;;;3.85;1.48;;;;;;;;;;4995226;28;20053;-63
2023/08/27 16:23:03;;;;;;;2.33;1.20;;;;;;;;;;4996819;28;20058;-63
2023/08/27 16:25:51;;;;;;;2.25;1.10;;;;;;;;;;5002411;28;20456;-50
2023/08/27 16:28:44;;;;;;;4.13;1.20;;;;;;;;;;5002080;28;20085;-59
2023/08/27 16:31:31;;;;;;;3.63;1.20;;;;;;;;;;5004469;28;20585;-60
2023/08/27 16:34:25;;;;;;;3.08;1.63;;;;;;;;;;4982645;28;20528;-59
2023/08/27 16:37:12;;;;;;;2.78;1.25;;;;;;;;;;5001372;28;20053;-59
2023/08/27 16:40:07;;;;;;;3.63;1.40;;;;;;;;;;4999881;28;20180;-59
2023/08/27 16:42:54;;;;;;;4.07;1.40;;;;;;;;;;5001856;28;20050;-51
2023/08/27 16:45:57;;;;;;;4.05;1.40;;;;;;;;;;4992530;28;20050;-49
2023/08/27 16:48:52;;;;;;;2.55;1.27;;;;;;;;;;5000276;28;20049;-49